CheckWX is a tool to help pilots better visualize weather data.  It is not intended as a substitute for an official pre-flight weather briefing.

18:35:22 UTC

KFTY TAF
Fulton County Airport Brown Field
Atlanta, Georgia, USA
KFTY 102341Z 1100/1124 30009KT P6SM FEW045 FM110200 30006KT P6SM FEW250 FM111600 32011G18KT P6SM SKC

Jul-11@
00:00 UTC

Jul-11 @ 00:00 UTC

Jul-11@
02:00 UTC

Jul-11 @ 02:00 UTC

TAF KFTY 102341Z 1100/1124 30009KT P6SM FEW045

Expired

Wind
  • 300° at 9 KTS
Cloud Levels
  • Few at 4,500' AGL

Jul-11@
02:00 UTC

Jul-11 @ 02:00 UTC

Jul-11@
16:00 UTC

Jul-11 @ 16:00 UTC

FM110200 30006KT P6SM FEW250

Expired

Wind
  • 300° at 6 KTS
Cloud Levels
  • Few at 25,000' AGL

Jul-11@
16:00 UTC

Jul-11 @ 16:00 UTC

Jul-12@
00:00 UTC

Jul-12 @ 00:00 UTC

FM111600 32011G18KT P6SM SKC

From

From Standard forecast or significant change

Wind
  • 320° at 11 KTS
  • {Gusting to 18 KTS
Cloud Levels
  • Clear skies